sensor_id;sensor_type;location;lat;lon;timestamp;P1;durP1;ratioP1;P2;durP2;ratioP2
23782;SDS011;12071;50.850;4.446;2023-12-20T00:00:57;14.32;;;2.17;;
23782;SDS011;12071;50.850;4.446;2023-12-20T00:03:23;14.07;;;2.22;;
23782;SDS011;12071;50.850;4.446;2023-12-20T00:05:49;13.63;;;2.15;;
23782;SDS011;12071;50.850;4.446;2023-12-20T00:08:15;10.90;;;2.05;;
23782;SDS011;12071;50.850;4.446;2023-12-20T00:10:41;19.40;;;2.20;;
23782;SDS011;12071;50.850;4.446;2023-12-20T00:13:08;15.90;;;1.98;;
23782;SDS011;12071;50.850;4.446;2023-12-20T00:15:34;14.23;;;2.10;;
23782;SDS011;12071;50.850;4.446;2023-12-20T00:18:00;8.80;;;1.60;;
23782;SDS011;12071;50.850;4.446;2023-12-20T00:20:26;13.57;;;1.70;;
23782;SDS011;12071;50.850;4.446;2023-12-20T00:22:53;14.52;;;1.95;;
23782;SDS011;12071;50.850;4.446;2023-12-20T00:25:25;12.75;;;1.77;;
23782;SDS011;12071;50.850;4.446;2023-12-20T00:27:51;11.93;;;2.00;;
23782;SDS011;12071;50.850;4.446;2023-12-20T00:30:17;10.15;;;2.28;;
23782;SDS011;12071;50.850;4.446;2023-12-20T00:32:43;6.90;;;2.03;;
23782;SDS011;12071;50.850;4.446;2023-12-20T00:35:14;7.90;;;1.90;;
23782;SDS011;12071;50.850;4.446;2023-12-20T00:37:41;12.13;;;2.03;;
23782;SDS011;12071;50.850;4.446;2023-12-20T00:40:07;17.55;;;2.63;;
23782;SDS011;12071;50.850;4.446;2023-12-20T00:42:33;10.95;;;3.00;;
23782;SDS011;12071;50.850;4.446;2023-12-20T00:44:59;14.30;;;2.20;;
23782;SDS011;12071;50.850;4.446;2023-12-20T00:47:25;16.17;;;1.98;;
23782;SDS011;12071;50.850;4.446;2023-12-20T00:49:51;11.68;;;2.45;;
23782;SDS011;12071;50.850;4.446;2023-12-20T00:52:18;13.52;;;2.20;;
23782;SDS011;12071;50.850;4.446;2023-12-20T00:54:44;13.48;;;2.17;;
23782;SDS011;12071;50.850;4.446;2023-12-20T00:57:10;12.60;;;2.20;;
23782;SDS011;12071;50.850;4.446;2023-12-20T00:59:36;9.90;;;2.28;;
23782;SDS011;12071;50.850;4.446;2023-12-20T01:02:02;11.85;;;2.15;;
23782;SDS011;12071;50.850;4.446;2023-12-20T01:04:28;9.70;;;2.15;;
23782;SDS011;12071;50.850;4.446;2023-12-20T01:06:53;9.18;;;2.25;;
23782;SDS011;12071;50.850;4.446;2023-12-20T01:09:19;15.23;;;2.55;;
23782;SDS011;12071;50.850;4.446;2023-12-20T01:11:48;13.70;;;2.45;;
23782;SDS011;12071;50.850;4.446;2023-12-20T01:14:14;12.60;;;2.50;;
23782;SDS011;12071;50.850;4.446;2023-12-20T01:16:40;15.90;;;2.80;;
23782;SDS011;12071;50.850;4.446;2023-12-20T01:19:05;12.07;;;2.78;;
23782;SDS011;12071;50.850;4.446;2023-12-20T01:21:31;16.95;;;2.90;;
23782;SDS011;12071;50.850;4.446;2023-12-20T01:23:57;16.42;;;3.55;;
23782;SDS011;12071;50.850;4.446;2023-12-20T01:26:23;15.43;;;3.15;;
23782;SDS011;12071;50.850;4.446;2023-12-20T01:28:49;9.75;;;2.70;;
23782;SDS011;12071;50.850;4.446;2023-12-20T01:31:14;24.90;;;3.20;;
23782;SDS011;12071;50.850;4.446;2023-12-20T01:33:40;13.43;;;2.90;;
23782;SDS011;12071;50.850;4.446;2023-12-20T01:36:06;14.23;;;3.75;;
23782;SDS011;12071;50.850;4.446;2023-12-20T01:38:32;20.77;;;2.63;;
23782;SDS011;12071;50.850;4.446;2023-12-20T01:40:57;14.88;;;3.15;;
23782;SDS011;12071;50.850;4.446;2023-12-20T01:43:23;19.08;;;3.00;;
23782;SDS011;12071;50.850;4.446;2023-12-20T01:45:49;18.25;;;4.30;;
23782;SDS011;12071;50.850;4.446;2023-12-20T01:48:15;12.98;;;3.05;;
23782;SDS011;12071;50.850;4.446;2023-12-20T01:50:41;15.70;;;3.88;;
23782;SDS011;12071;50.850;4.446;2023-12-20T01:53:08;14.35;;;3.38;;
23782;SDS011;12071;50.850;4.446;2023-12-20T01:55:37;11.43;;;2.55;;
23782;SDS011;12071;50.850;4.446;2023-12-20T01:58:04;18.95;;;3.33;;
23782;SDS011;12071;50.850;4.446;2023-12-20T02:00:30;18.23;;;3.30;;
23782;SDS011;12071;50.850;4.446;2023-12-20T02:02:56;12.80;;;3.30;;
23782;SDS011;12071;50.850;4.446;2023-12-20T02:05:26;10.95;;;3.00;;
23782;SDS011;12071;50.850;4.446;2023-12-20T02:07:53;15.88;;;4.07;;
23782;SDS011;12071;50.850;4.446;2023-12-20T02:10:19;18.92;;;3.70;;
23782;SDS011;12071;50.850;4.446;2023-12-20T02:12:44;17.33;;;3.05;;
23782;SDS011;12071;50.850;4.446;2023-12-20T02:15:10;15.35;;;3.95;;
23782;SDS011;12071;50.850;4.446;2023-12-20T02:17:36;19.50;;;3.67;;
23782;SDS011;12071;50.850;4.446;2023-12-20T02:20:03;13.20;;;3.20;;
23782;SDS011;12071;50.850;4.446;2023-12-20T02:22:30;14.77;;;3.80;;
23782;SDS011;12071;50.850;4.446;2023-12-20T02:24:56;14.70;;;3.28;;
23782;SDS011;12071;50.850;4.446;2023-12-20T02:27:22;12.25;;;3.28;;
23782;SDS011;12071;50.850;4.446;2023-12-20T02:29:48;12.30;;;2.78;;
23782;SDS011;12071;50.850;4.446;2023-12-20T02:32:15;17.63;;;3.22;;
23782;SDS011;12071;50.850;4.446;2023-12-20T02:34:45;17.50;;;3.65;;
23782;SDS011;12071;50.850;4.446;2023-12-20T02:37:14;21.40;;;4.22;;
23782;SDS011;12071;50.850;4.446;2023-12-20T02:39:40;15.60;;;3.60;;
23782;SDS011;12071;50.850;4.446;2023-12-20T02:42:06;15.75;;;3.30;;
23782;SDS011;12071;50.850;4.446;2023-12-20T02:44:31;13.95;;;3.20;;
23782;SDS011;12071;50.850;4.446;2023-12-20T02:46:57;14.18;;;3.80;;
23782;SDS011;12071;50.850;4.446;2023-12-20T02:49:23;12.48;;;3.50;;
23782;SDS011;12071;50.850;4.446;2023-12-20T02:51:49;15.88;;;3.88;;
23782;SDS011;12071;50.850;4.446;2023-12-20T02:54:14;23.90;;;3.88;;
23782;SDS011;12071;50.850;4.446;2023-12-20T02:56:40;15.60;;;3.70;;
23782;SDS011;12071;50.850;4.446;2023-12-20T02:59:06;14.27;;;3.60;;
23782;SDS011;12071;50.850;4.446;2023-12-20T03:01:33;15.43;;;3.92;;
23782;SDS011;12071;50.850;4.446;2023-12-20T03:04:00;22.23;;;4.57;;
23782;SDS011;12071;50.850;4.446;2023-12-20T03:06:26;17.70;;;4.05;;
23782;SDS011;12071;50.850;4.446;2023-12-20T03:08:52;16.58;;;4.03;;
23782;SDS011;12071;50.850;4.446;2023-12-20T03:11:18;16.13;;;4.55;;
23782;SDS011;12071;50.850;4.446;2023-12-20T03:13:43;17.75;;;3.97;;
23782;SDS011;12071;50.850;4.446;2023-12-20T03:16:10;15.57;;;4.20;;
23782;SDS011;12071;50.850;4.446;2023-12-20T03:18:36;19.60;;;4.32;;
23782;SDS011;12071;50.850;4.446;2023-12-20T03:21:02;18.88;;;4.85;;
23782;SDS011;12071;50.850;4.446;2023-12-20T03:23:28;17.85;;;4.63;;
23782;SDS011;12071;50.850;4.446;2023-12-20T03:25:55;20.27;;;4.88;;
23782;SDS011;12071;50.850;4.446;2023-12-20T03:28:21;14.05;;;4.10;;
23782;SDS011;12071;50.850;4.446;2023-12-20T03:30:48;17.27;;;5.28;;
23782;SDS011;12071;50.850;4.446;2023-12-20T03:33:14;19.95;;;4.18;;
23782;SDS011;12071;50.850;4.446;2023-12-20T03:35:40;21.65;;;4.55;;
23782;SDS011;12071;50.850;4.446;2023-12-20T03:38:05;19.67;;;5.07;;
23782;SDS011;12071;50.850;4.446;2023-12-20T03:40:31;15.82;;;4.32;;
23782;SDS011;12071;50.850;4.446;2023-12-20T03:42:57;14.55;;;3.88;;
23782;SDS011;12071;50.850;4.446;2023-12-20T03:45:22;20.65;;;4.78;;
23782;SDS011;12071;50.850;4.446;2023-12-20T03:47:48;21.08;;;4.50;;
23782;SDS011;12071;50.850;4.446;2023-12-20T03:50:14;22.77;;;4.90;;
23782;SDS011;12071;50.850;4.446;2023-12-20T03:52:40;21.42;;;4.32;;
23782;SDS011;12071;50.850;4.446;2023-12-20T03:55:06;14.95;;;4.22;;
23782;SDS011;12071;50.850;4.446;2023-12-20T03:57:31;18.90;;;4.78;;
23782;SDS011;12071;50.850;4.446;2023-12-20T03:59:57;16.23;;;4.68;;
23782;SDS011;12071;50.850;4.446;2023-12-20T04:02:23;16.23;;;4.05;;
23782;SDS011;12071;50.850;4.446;2023-12-20T04:04:49;13.88;;;4.57;;
23782;SDS011;12071;50.850;4.446;2023-12-20T04:07:14;16.60;;;4.45;;
23782;SDS011;12071;50.850;4.446;2023-12-20T04:09:40;22.10;;;5.63;;
23782;SDS011;12071;50.850;4.446;2023-12-20T04:12:06;12.82;;;4.15;;
23782;SDS011;12071;50.850;4.446;2023-12-20T04:14:32;23.20;;;4.47;;
23782;SDS011;12071;50.850;4.446;2023-12-20T04:16:58;17.45;;;4.63;;
23782;SDS011;12071;50.850;4.446;2023-12-20T04:19:23;16.08;;;4.07;;
23782;SDS011;12071;50.850;4.446;2023-12-20T04:21:49;15.90;;;3.90;;
23782;SDS011;12071;50.850;4.446;2023-12-20T04:24:15;15.05;;;4.72;;
23782;SDS011;12071;50.850;4.446;2023-12-20T04:26:41;18.67;;;4.75;;
23782;SDS011;12071;50.850;4.446;2023-12-20T04:29:06;16.73;;;3.85;;
23782;SDS011;12071;50.850;4.446;2023-12-20T04:31:32;13.77;;;3.97;;
23782;SDS011;12071;50.850;4.446;2023-12-20T04:33:58;22.05;;;4.70;;
23782;SDS011;12071;50.850;4.446;2023-12-20T04:36:24;22.02;;;4.63;;
23782;SDS011;12071;50.850;4.446;2023-12-20T04:38:55;16.00;;;3.55;;
23782;SDS011;12071;50.850;4.446;2023-12-20T04:41:20;18.15;;;4.22;;
23782;SDS011;12071;50.850;4.446;2023-12-20T04:43:46;20.67;;;4.38;;
23782;SDS011;12071;50.850;4.446;2023-12-20T04:46:12;18.42;;;3.95;;
23782;SDS011;12071;50.850;4.446;2023-12-20T04:48:37;21.27;;;4.35;;
23782;SDS011;12071;50.850;4.446;2023-12-20T04:51:03;21.63;;;4.50;;
23782;SDS011;12071;50.850;4.446;2023-12-20T04:53:29;13.60;;;3.53;;
23782;SDS011;12071;50.850;4.446;2023-12-20T04:55:55;16.30;;;3.92;;
23782;SDS011;12071;50.850;4.446;2023-12-20T04:58:21;18.20;;;3.95;;
23782;SDS011;12071;50.850;4.446;2023-12-20T05:00:46;18.42;;;4.18;;
23782;SDS011;12071;50.850;4.446;2023-12-20T05:03:12;14.40;;;4.05;;
23782;SDS011;12071;50.850;4.446;2023-12-20T05:05:37;15.43;;;3.95;;
23782;SDS011;12071;50.850;4.446;2023-12-20T05:08:04;15.98;;;4.60;;
23782;SDS011;12071;50.850;4.446;2023-12-20T05:10:30;15.13;;;3.65;;
23782;SDS011;12071;50.850;4.446;2023-12-20T05:12:55;20.52;;;3.45;;
23782;SDS011;12071;50.850;4.446;2023-12-20T05:15:21;13.88;;;3.40;;
23782;SDS011;12071;50.850;4.446;2023-12-20T05:17:47;13.73;;;3.35;;
23782;SDS011;12071;50.850;4.446;2023-12-20T05:20:12;16.23;;;3.53;;
23782;SDS011;12071;50.850;4.446;2023-12-20T05:22:38;17.70;;;3.58;;
23782;SDS011;12071;50.850;4.446;2023-12-20T05:25:04;17.67;;;4.28;;
23782;SDS011;12071;50.850;4.446;2023-12-20T05:27:30;15.35;;;4.65;;
23782;SDS011;12071;50.850;4.446;2023-12-20T05:29:56;18.60;;;4.00;;
23782;SDS011;12071;50.850;4.446;2023-12-20T05:32:22;14.50;;;3.42;;
23782;SDS011;12071;50.850;4.446;2023-12-20T05:34:49;14.80;;;3.90;;
23782;SDS011;12071;50.850;4.446;2023-12-20T05:37:15;20.15;;;4.28;;
23782;SDS011;12071;50.850;4.446;2023-12-20T05:39:40;14.90;;;3.65;;
23782;SDS011;12071;50.850;4.446;2023-12-20T05:42:06;14.35;;;4.07;;
23782;SDS011;12071;50.850;4.446;2023-12-20T05:44:32;17.40;;;4.25;;
23782;SDS011;12071;50.850;4.446;2023-12-20T05:46:57;12.70;;;3.90;;
23782;SDS011;12071;50.850;4.446;2023-12-20T05:49:23;14.63;;;3.95;;
23782;SDS011;12071;50.850;4.446;2023-12-20T05:51:49;14.60;;;3.88;;
23782;SDS011;12071;50.850;4.446;2023-12-20T05:54:16;20.50;;;4.32;;
23782;SDS011;12071;50.850;4.446;2023-12-20T05:56:41;18.50;;;3.92;;
23782;SDS011;12071;50.850;4.446;2023-12-20T05:59:07;15.30;;;3.85;;
23782;SDS011;12071;50.850;4.446;2023-12-20T06:01:33;13.38;;;4.07;;
23782;SDS011;12071;50.850;4.446;2023-12-20T06:03:58;13.65;;;4.20;;
23782;SDS011;12071;50.850;4.446;2023-12-20T06:06:24;18.40;;;4.90;;
23782;SDS011;12071;50.850;4.446;2023-12-20T06:08:50;18.25;;;3.55;;
23782;SDS011;12071;50.850;4.446;2023-12-20T06:11:16;23.02;;;4.63;;
23782;SDS011;12071;50.850;4.446;2023-12-20T06:13:41;13.00;;;4.00;;
23782;SDS011;12071;50.850;4.446;2023-12-20T06:16:07;20.63;;;3.65;;
23782;SDS011;12071;50.850;4.446;2023-12-20T06:18:33;17.50;;;3.35;;
23782;SDS011;12071;50.850;4.446;2023-12-20T06:20:58;16.27;;;3.72;;
23782;SDS011;12071;50.850;4.446;2023-12-20T06:23:24;15.98;;;3.75;;
23782;SDS011;12071;50.850;4.446;2023-12-20T06:25:50;22.50;;;3.90;;
23782;SDS011;12071;50.850;4.446;2023-12-20T06:28:15;16.83;;;3.35;;
23782;SDS011;12071;50.850;4.446;2023-12-20T06:30:41;16.80;;;3.78;;
23782;SDS011;12071;50.850;4.446;2023-12-20T06:33:07;18.23;;;3.38;;
23782;SDS011;12071;50.850;4.446;2023-12-20T06:35:34;14.43;;;3.30;;
23782;SDS011;12071;50.850;4.446;2023-12-20T06:38:00;15.82;;;3.70;;
23782;SDS011;12071;50.850;4.446;2023-12-20T06:40:26;14.85;;;3.20;;
23782;SDS011;12071;50.850;4.446;2023-12-20T06:42:52;15.23;;;3.10;;
23782;SDS011;12071;50.850;4.446;2023-12-20T06:45:17;14.23;;;3.28;;
23782;SDS011;12071;50.850;4.446;2023-12-20T06:47:43;15.52;;;3.38;;
23782;SDS011;12071;50.850;4.446;2023-12-20T06:50:09;12.70;;;3.22;;
23782;SDS011;12071;50.850;4.446;2023-12-20T06:52:34;20.17;;;4.28;;
23782;SDS011;12071;50.850;4.446;2023-12-20T06:55:00;13.25;;;3.03;;
23782;SDS011;12071;50.850;4.446;2023-12-20T06:57:26;22.73;;;4.10;;
23782;SDS011;12071;50.850;4.446;2023-12-20T06:59:52;19.35;;;3.47;;
23782;SDS011;12071;50.850;4.446;2023-12-20T07:02:18;19.95;;;3.55;;
23782;SDS011;12071;50.850;4.446;2023-12-20T07:04:44;11.48;;;3.22;;
23782;SDS011;12071;50.850;4.446;2023-12-20T07:07:09;18.45;;;3.20;;
23782;SDS011;12071;50.850;4.446;2023-12-20T07:09:35;17.98;;;3.50;;
23782;SDS011;12071;50.850;4.446;2023-12-20T07:12:01;15.32;;;3.58;;
23782;SDS011;12071;50.850;4.446;2023-12-20T07:14:27;16.63;;;3.53;;
23782;SDS011;12071;50.850;4.446;2023-12-20T07:16:54;10.85;;;2.85;;
23782;SDS011;12071;50.850;4.446;2023-12-20T07:19:20;13.27;;;3.15;;
23782;SDS011;12071;50.850;4.446;2023-12-20T07:21:45;18.73;;;3.28;;
23782;SDS011;12071;50.850;4.446;2023-12-20T07:24:11;10.43;;;2.90;;
23782;SDS011;12071;50.850;4.446;2023-12-20T07:26:37;15.45;;;3.13;;
23782;SDS011;12071;50.850;4.446;2023-12-20T07:29:03;19.92;;;3.45;;
23782;SDS011;12071;50.850;4.446;2023-12-20T07:31:29;20.92;;;3.88;;
23782;SDS011;12071;50.850;4.446;2023-12-20T07:33:58;13.10;;;3.17;;
23782;SDS011;12071;50.850;4.446;2023-12-20T07:36:24;18.77;;;3.40;;
23782;SDS011;12071;50.850;4.446;2023-12-20T07:38:50;18.50;;;3.13;;
23782;SDS011;12071;50.850;4.446;2023-12-20T07:41:15;23.75;;;4.10;;
23782;SDS011;12071;50.850;4.446;2023-12-20T07:43:41;17.77;;;3.03;;
23782;SDS011;12071;50.850;4.446;2023-12-20T07:46:07;18.23;;;3.92;;
23782;SDS011;12071;50.850;4.446;2023-12-20T07:48:34;11.32;;;3.08;;
23782;SDS011;12071;50.850;4.446;2023-12-20T07:51:00;14.43;;;3.38;;
23782;SDS011;12071;50.850;4.446;2023-12-20T07:53:26;13.38;;;3.17;;
23782;SDS011;12071;50.850;4.446;2023-12-20T07:55:52;13.88;;;2.40;;
23782;SDS011;12071;50.850;4.446;2023-12-20T07:58:18;18.67;;;3.08;;
23782;SDS011;12071;50.850;4.446;2023-12-20T08:00:44;24.83;;;3.20;;
23782;SDS011;12071;50.850;4.446;2023-12-20T08:03:10;17.88;;;3.40;;
23782;SDS011;12071;50.850;4.446;2023-12-20T08:05:36;15.90;;;3.20;;
23782;SDS011;12071;50.850;4.446;2023-12-20T08:08:05;16.98;;;3.47;;
23782;SDS011;12071;50.850;4.446;2023-12-20T08:10:31;16.52;;;3.40;;
23782;SDS011;12071;50.850;4.446;2023-12-20T08:12:57;16.08;;;3.22;;
23782;SDS011;12071;50.850;4.446;2023-12-20T08:15:23;14.52;;;3.10;;
23782;SDS011;12071;50.850;4.446;2023-12-20T08:17:49;18.80;;;3.17;;
23782;SDS011;12071;50.850;4.446;2023-12-20T08:20:16;20.15;;;3.20;;
23782;SDS011;12071;50.850;4.446;2023-12-20T08:22:42;12.65;;;3.17;;
23782;SDS011;12071;50.850;4.446;2023-12-20T08:25:08;16.85;;;3.53;;
23782;SDS011;12071;50.850;4.446;2023-12-20T08:27:34;23.50;;;3.22;;
23782;SDS011;12071;50.850;4.446;2023-12-20T08:30:05;19.27;;;3.45;;
23782;SDS011;12071;50.850;4.446;2023-12-20T08:32:31;18.45;;;2.97;;
23782;SDS011;12071;50.850;4.446;2023-12-20T08:34:57;18.20;;;3.20;;
23782;SDS011;12071;50.850;4.446;2023-12-20T08:37:23;23.02;;;4.22;;
23782;SDS011;12071;50.850;4.446;2023-12-20T08:39:49;19.95;;;3.78;;
23782;SDS011;12071;50.850;4.446;2023-12-20T08:42:14;15.63;;;3.03;;
23782;SDS011;12071;50.850;4.446;2023-12-20T08:44:40;20.88;;;2.95;;
23782;SDS011;12071;50.850;4.446;2023-12-20T08:47:06;9.95;;;2.63;;
23782;SDS011;12071;50.850;4.446;2023-12-20T08:49:32;15.27;;;2.63;;
23782;SDS011;12071;50.850;4.446;2023-12-20T08:51:58;16.13;;;3.35;;
23782;SDS011;12071;50.850;4.446;2023-12-20T08:54:24;20.60;;;3.15;;
23782;SDS011;12071;50.850;4.446;2023-12-20T08:56:49;17.88;;;2.95;;
23782;SDS011;12071;50.850;4.446;2023-12-20T08:59:15;14.88;;;2.88;;
23782;SDS011;12071;50.850;4.446;2023-12-20T09:01:41;21.40;;;3.50;;
23782;SDS011;12071;50.850;4.446;2023-12-20T09:04:06;15.75;;;2.83;;
23782;SDS011;12071;50.850;4.446;2023-12-20T09:06:33;16.08;;;2.65;;
23782;SDS011;12071;50.850;4.446;2023-12-20T09:08:59;16.08;;;2.92;;
23782;SDS011;12071;50.850;4.446;2023-12-20T09:11:24;18.20;;;3.35;;
23782;SDS011;12071;50.850;4.446;2023-12-20T09:13:50;21.02;;;4.20;;
23782;SDS011;12071;50.850;4.446;2023-12-20T09:16:16;13.50;;;2.92;;
23782;SDS011;12071;50.850;4.446;2023-12-20T09:18:42;14.15;;;3.22;;
23782;SDS011;12071;50.850;4.446;2023-12-20T09:21:07;14.07;;;3.22;;
23782;SDS011;12071;50.850;4.446;2023-12-20T09:23:33;14.68;;;3.42;;
23782;SDS011;12071;50.850;4.446;2023-12-20T09:25:59;26.58;;;2.95;;
23782;SDS011;12071;50.850;4.446;2023-12-20T09:28:25;20.33;;;3.60;;
23782;SDS011;12071;50.850;4.446;2023-12-20T09:30:50;20.60;;;3.65;;
23782;SDS011;12071;50.850;4.446;2023-12-20T09:33:16;17.00;;;2.88;;
23782;SDS011;12071;50.850;4.446;2023-12-20T09:35:42;14.02;;;2.92;;
23782;SDS011;12071;50.850;4.446;2023-12-20T09:38:08;17.83;;;2.75;;
23782;SDS011;12071;50.850;4.446;2023-12-20T09:40:33;15.05;;;3.35;;
23782;SDS011;12071;50.850;4.446;2023-12-20T09:43:04;11.85;;;2.85;;
23782;SDS011;12071;50.850;4.446;2023-12-20T09:45:39;17.08;;;3.95;;
23782;SDS011;12071;50.850;4.446;2023-12-20T09:48:05;10.93;;;2.80;;
23782;SDS011;12071;50.850;4.446;2023-12-20T09:50:35;18.70;;;3.20;;
23782;SDS011;12071;50.850;4.446;2023-12-20T09:53:01;24.98;;;4.18;;
23782;SDS011;12071;50.850;4.446;2023-12-20T09:55:30;17.17;;;3.28;;
23782;SDS011;12071;50.850;4.446;2023-12-20T09:57:57;12.38;;;2.25;;
23782;SDS011;12071;50.850;4.446;2023-12-20T10:00:24;12.40;;;2.55;;
23782;SDS011;12071;50.850;4.446;2023-12-20T10:02:50;16.58;;;3.33;;
23782;SDS011;12071;50.850;4.446;2023-12-20T10:05:26;10.18;;;2.40;;
23782;SDS011;12071;50.850;4.446;2023-12-20T10:07:53;14.10;;;3.55;;
23782;SDS011;12071;50.850;4.446;2023-12-20T10:10:18;18.65;;;3.20;;
23782;SDS011;12071;50.850;4.446;2023-12-20T10:13:03;15.40;;;2.78;;
23782;SDS011;12071;50.850;4.446;2023-12-20T10:15:32;11.98;;;2.50;;
23782;SDS011;12071;50.850;4.446;2023-12-20T10:17:58;14.43;;;2.78;;
23782;SDS011;12071;50.850;4.446;2023-12-20T10:20:24;14.70;;;2.88;;
23782;SDS011;12071;50.850;4.446;2023-12-20T10:22:50;19.02;;;3.33;;
23782;SDS011;12071;50.850;4.446;2023-12-20T10:25:18;17.40;;;3.08;;
23782;SDS011;12071;50.850;4.446;2023-12-20T10:27:45;18.08;;;3.13;;
23782;SDS011;12071;50.850;4.446;2023-12-20T10:30:11;11.02;;;2.80;;
23782;SDS011;12071;50.850;4.446;2023-12-20T10:32:37;15.70;;;2.92;;
23782;SDS011;12071;50.850;4.446;2023-12-20T10:35:03;13.65;;;3.47;;
23782;SDS011;12071;50.850;4.446;2023-12-20T10:37:29;14.00;;;3.05;;
23782;SDS011;12071;50.850;4.446;2023-12-20T10:39:55;16.08;;;3.20;;
23782;SDS011;12071;50.850;4.446;2023-12-20T10:42:22;16.20;;;3.10;;
23782;SDS011;12071;50.850;4.446;2023-12-20T10:44:51;12.23;;;2.53;;
23782;SDS011;12071;50.850;4.446;2023-12-20T10:47:19;18.17;;;3.33;;
23782;SDS011;12071;50.850;4.446;2023-12-20T10:49:45;14.90;;;2.95;;
23782;SDS011;12071;50.850;4.446;2023-12-20T10:52:12;15.25;;;3.10;;
23782;SDS011;12071;50.850;4.446;2023-12-20T10:54:38;16.45;;;3.53;;
23782;SDS011;12071;50.850;4.446;2023-12-20T10:57:05;15.30;;;3.00;;
23782;SDS011;12071;50.850;4.446;2023-12-20T10:59:36;15.30;;;2.78;;
23782;SDS011;12071;50.850;4.446;2023-12-20T11:02:02;13.00;;;3.13;;
23782;SDS011;12071;50.850;4.446;2023-12-20T11:04:36;16.27;;;2.95;;
23782;SDS011;12071;50.850;4.446;2023-12-20T11:07:24;20.05;;;2.60;;
23782;SDS011;12071;50.850;4.446;2023-12-20T11:10:00;14.45;;;3.65;;
23782;SDS011;12071;50.850;4.446;2023-12-20T11:13:06;12.25;;;2.55;;
23782;SDS011;12071;50.850;4.446;2023-12-20T11:15:42;14.50;;;2.90;;
23782;SDS011;12071;50.850;4.446;2023-12-20T11:18:09;14.93;;;3.60;;
23782;SDS011;12071;50.850;4.446;2023-12-20T11:20:38;13.23;;;2.63;;
23782;SDS011;12071;50.850;4.446;2023-12-20T11:23:05;16.55;;;3.33;;
23782;SDS011;12071;50.850;4.446;2023-12-20T11:25:51;14.93;;;2.20;;
23782;SDS011;12071;50.850;4.446;2023-12-20T11:28:22;15.93;;;2.75;;
23782;SDS011;12071;50.850;4.446;2023-12-20T11:30:50;19.58;;;3.10;;
23782;SDS011;12071;50.850;4.446;2023-12-20T11:33:20;12.55;;;2.45;;
23782;SDS011;12071;50.850;4.446;2023-12-20T11:35:50;16.15;;;2.72;;
23782;SDS011;12071;50.850;4.446;2023-12-20T11:38:16;13.65;;;3.15;;
23782;SDS011;12071;50.850;4.446;2023-12-20T11:40:48;17.17;;;3.75;;
23782;SDS011;12071;50.850;4.446;2023-12-20T11:43:31;10.93;;;3.10;;
23782;SDS011;12071;50.850;4.446;2023-12-20T11:46:02;12.05;;;2.78;;
23782;SDS011;12071;50.850;4.446;2023-12-20T11:48:31;14.05;;;3.35;;
23782;SDS011;12071;50.850;4.446;2023-12-20T11:50:58;10.85;;;2.35;;
23782;SDS011;12071;50.850;4.446;2023-12-20T11:53:24;15.48;;;3.35;;
23782;SDS011;12071;50.850;4.446;2023-12-20T11:55:50;22.08;;;3.55;;
23782;SDS011;12071;50.850;4.446;2023-12-20T11:58:16;23.92;;;3.58;;
23782;SDS011;12071;50.850;4.446;2023-12-20T12:00:42;16.08;;;3.75;;
23782;SDS011;12071;50.850;4.446;2023-12-20T12:03:08;20.63;;;3.13;;
23782;SDS011;12071;50.850;4.446;2023-12-20T12:05:34;16.70;;;3.08;;
23782;SDS011;12071;50.850;4.446;2023-12-20T12:08:03;23.00;;;3.03;;
23782;SDS011;12071;50.850;4.446;2023-12-20T12:10:30;13.80;;;2.90;;
23782;SDS011;12071;50.850;4.446;2023-12-20T12:12:55;22.05;;;2.88;;
23782;SDS011;12071;50.850;4.446;2023-12-20T12:15:21;13.30;;;3.40;;
23782;SDS011;12071;50.850;4.446;2023-12-20T12:17:54;19.00;;;4.03;;
23782;SDS011;12071;50.850;4.446;2023-12-20T12:20:21;16.75;;;2.85;;
23782;SDS011;12071;50.850;4.446;2023-12-20T12:23:03;12.32;;;2.75;;
23782;SDS011;12071;50.850;4.446;2023-12-20T12:25:31;17.25;;;2.88;;
23782;SDS011;12071;50.850;4.446;2023-12-20T12:27:57;19.08;;;3.20;;
23782;SDS011;12071;50.850;4.446;2023-12-20T12:30:24;15.60;;;2.63;;
23782;SDS011;12071;50.850;4.446;2023-12-20T12:32:50;14.25;;;2.75;;
23782;SDS011;12071;50.850;4.446;2023-12-20T12:35:17;19.45;;;3.08;;
23782;SDS011;12071;50.850;4.446;2023-12-20T12:37:43;19.05;;;3.22;;
23782;SDS011;12071;50.850;4.446;2023-12-20T12:40:10;17.38;;;3.10;;
23782;SDS011;12071;50.850;4.446;2023-12-20T12:42:37;13.90;;;2.75;;
23782;SDS011;12071;50.850;4.446;2023-12-20T12:45:03;15.85;;;3.10;;
23782;SDS011;12071;50.850;4.446;2023-12-20T12:47:29;19.95;;;3.15;;
23782;SDS011;12071;50.850;4.446;2023-12-20T12:49:55;13.50;;;2.80;;
23782;SDS011;12071;50.850;4.446;2023-12-20T12:52:21;13.98;;;2.70;;
23782;SDS011;12071;50.850;4.446;2023-12-20T12:54:47;17.27;;;3.40;;
23782;SDS011;12071;50.850;4.446;2023-12-20T12:57:14;15.40;;;2.70;;
23782;SDS011;12071;50.850;4.446;2023-12-20T12:59:40;10.27;;;2.70;;
23782;SDS011;12071;50.850;4.446;2023-12-20T13:02:07;15.55;;;2.97;;
23782;SDS011;12071;50.850;4.446;2023-12-20T13:04:33;17.23;;;3.70;;
23782;SDS011;12071;50.850;4.446;2023-12-20T13:06:59;15.93;;;3.05;;
23782;SDS011;12071;50.850;4.446;2023-12-20T13:09:25;17.83;;;3.00;;
23782;SDS011;12071;50.850;4.446;2023-12-20T13:11:50;16.05;;;2.50;;
23782;SDS011;12071;50.850;4.446;2023-12-20T13:14:16;13.52;;;2.50;;
23782;SDS011;12071;50.850;4.446;2023-12-20T13:16:42;11.27;;;2.72;;
23782;SDS011;12071;50.850;4.446;2023-12-20T13:19:08;16.27;;;2.85;;
23782;SDS011;12071;50.850;4.446;2023-12-20T13:21:35;14.02;;;3.17;;
23782;SDS011;12071;50.850;4.446;2023-12-20T13:24:01;16.55;;;3.15;;
23782;SDS011;12071;50.850;4.446;2023-12-20T13:26:26;17.83;;;2.95;;
23782;SDS011;12071;50.850;4.446;2023-12-20T13:28:53;13.75;;;3.30;;
23782;SDS011;12071;50.850;4.446;2023-12-20T13:31:19;9.73;;;2.90;;
23782;SDS011;12071;50.850;4.446;2023-12-20T13:33:45;12.63;;;2.80;;
23782;SDS011;12071;50.850;4.446;2023-12-20T13:36:11;14.60;;;2.80;;
23782;SDS011;12071;50.850;4.446;2023-12-20T13:38:37;17.13;;;3.00;;
23782;SDS011;12071;50.850;4.446;2023-12-20T13:41:03;14.48;;;2.80;;
23782;SDS011;12071;50.850;4.446;2023-12-20T13:43:29;10.40;;;2.63;;
23782;SDS011;12071;50.850;4.446;2023-12-20T13:45:56;16.70;;;2.92;;
23782;SDS011;12071;50.850;4.446;2023-12-20T13:48:22;16.33;;;3.10;;
23782;SDS011;12071;50.850;4.446;2023-12-20T13:50:48;14.80;;;2.67;;
23782;SDS011;12071;50.850;4.446;2023-12-20T13:53:13;14.52;;;2.50;;
23782;SDS011;12071;50.850;4.446;2023-12-20T13:55:39;19.40;;;2.80;;
23782;SDS011;12071;50.850;4.446;2023-12-20T13:58:05;14.82;;;2.75;;
23782;SDS011;12071;50.850;4.446;2023-12-20T14:00:31;14.70;;;2.67;;
23782;SDS011;12071;50.850;4.446;2023-12-20T14:02:56;15.27;;;3.03;;
23782;SDS011;12071;50.850;4.446;2023-12-20T14:05:23;13.02;;;2.80;;
23782;SDS011;12071;50.850;4.446;2023-12-20T14:07:49;14.73;;;3.17;;
23782;SDS011;12071;50.850;4.446;2023-12-20T14:10:15;17.77;;;3.10;;
23782;SDS011;12071;50.850;4.446;2023-12-20T14:12:41;11.23;;;2.35;;
23782;SDS011;12071;50.850;4.446;2023-12-20T14:15:07;11.32;;;2.53;;
23782;SDS011;12071;50.850;4.446;2023-12-20T14:17:36;13.30;;;2.53;;
23782;SDS011;12071;50.850;4.446;2023-12-20T14:20:04;17.40;;;3.28;;
23782;SDS011;12071;50.850;4.446;2023-12-20T14:22:31;12.63;;;2.88;;
23782;SDS011;12071;50.850;4.446;2023-12-20T14:24:57;16.27;;;2.67;;
23782;SDS011;12071;50.850;4.446;2023-12-20T14:27:22;15.07;;;2.83;;
23782;SDS011;12071;50.850;4.446;2023-12-20T14:29:49;14.02;;;2.58;;
23782;SDS011;12071;50.850;4.446;2023-12-20T14:32:15;16.17;;;2.95;;